createdAt,value
2017-10-24T00:01:22.608Z,71.08
2017-10-24T00:04:07.461Z,70.87
2017-10-24T00:07:02.782Z,71.40
2017-10-24T00:12:29.033Z,70.87
2017-10-24T00:15:26.305Z,71.18
2017-10-24T00:17:59.432Z,70.93
2017-10-24T00:20:32.227Z,71.33
2017-10-24T00:23:04.517Z,71.66
2017-10-24T00:25:37.720Z,71.47
2017-10-24T00:28:16.026Z,71.21
2017-10-24T00:30:50.730Z,71.11
2017-10-24T00:33:25.145Z,71.36
2017-10-24T00:35:57.956Z,71.18
2017-10-24T00:38:37.487Z,71.61
2017-10-24T00:41:10.032Z,71.80
2017-10-24T00:43:41.737Z,72.04
2017-10-24T00:46:13.733Z,72.47
2017-10-24T00:53:04.244Z,72.11
2017-10-24T00:55:36.658Z,72.97
2017-10-24T00:58:08.656Z,72.86
2017-10-24T01:00:41.256Z,72.34
2017-10-24T01:03:27.464Z,72.70
2017-10-24T01:08:51.047Z,72.65
2017-10-24T01:11:23.855Z,72.64
2017-10-24T01:13:56.576Z,72.90
2017-10-24T01:16:29.177Z,72.90
2017-10-24T01:19:01.171Z,72.36
2017-10-24T01:21:33.326Z,73.28
2017-10-24T01:24:08.484Z,72.57
2017-10-24T01:26:41.685Z,72.28
2017-10-24T01:29:17.196Z,72.27
2017-10-24T01:31:58.609Z,72.04
2017-10-24T01:34:30.937Z,71.70
2017-10-24T01:37:09.801Z,71.95
2017-10-24T01:39:41.833Z,71.59
2017-10-24T01:42:14.768Z,71.33
2017-10-24T01:44:49.696Z,71.59
2017-10-24T01:47:23.923Z,71.48
2017-10-24T01:49:58.382Z,71.52
2017-10-24T01:52:39.777Z,71.47
2017-10-24T01:55:14.860Z,71.74
2017-10-24T01:57:48.823Z,71.48
2017-10-24T02:00:25.969Z,71.15
2017-10-24T02:02:58.100Z,70.82
2017-10-24T02:08:30.364Z,71.57
2017-10-24T02:11:02.148Z,71.11
2017-10-24T02:13:34.258Z,71.05
2017-10-24T02:16:11.557Z,71.14
2017-10-24T02:19:08.192Z,71.28
2017-10-24T02:21:41.562Z,70.90
2017-10-24T02:24:37.746Z,71.36
2017-10-24T02:27:25.552Z,71.59
2017-10-24T02:30:09.343Z,71.65
2017-10-24T02:35:46.627Z,71.08
2017-10-24T02:38:21.048Z,71.02
2017-10-24T02:40:53.447Z,72.02
2017-10-24T02:43:25.674Z,71.18
2017-10-24T02:45:57.747Z,71.52
2017-10-24T02:48:30.049Z,71.44
2017-10-24T02:51:34.467Z,73.30
2017-10-24T02:57:10.644Z,72.10
2017-10-24T03:04:59.146Z,73.07
2017-10-24T03:07:39.444Z,72.78
2017-10-24T03:10:11.741Z,73.50
2017-10-24T03:13:15.277Z,73.21
2017-10-24T03:15:51.746Z,73.26
2017-10-24T03:18:32.845Z,73.43
2017-10-24T03:21:07.660Z,75.17
2017-10-24T03:23:39.561Z,74.26
2017-10-24T03:26:13.214Z,73.76
2017-10-24T03:28:45.549Z,73.36
2017-10-24T03:31:17.956Z,73.28
2017-10-24T03:33:51.569Z,73.53
2017-10-24T03:36:24.579Z,73.41
2017-10-24T03:38:56.369Z,74.76
2017-10-24T03:41:28.472Z,75.09
2017-10-24T03:44:00.718Z,74.36
2017-10-24T03:46:33.882Z,73.60
2017-10-24T03:49:05.659Z,73.58
2017-10-24T03:51:38.873Z,73.81
2017-10-24T03:54:10.887Z,73.76
2017-10-24T03:56:43.075Z,73.44
2017-10-24T03:59:15.087Z,73.30
2017-10-24T04:01:49.224Z,72.84
2017-10-24T04:04:22.061Z,73.18
2017-10-24T04:06:56.956Z,73.58
2017-10-24T04:09:29.054Z,73.67
2017-10-24T04:12:00.758Z,73.51
2017-10-24T04:14:32.551Z,73.64
2017-10-24T04:17:04.943Z,74.14
2017-10-24T04:19:37.550Z,75.45
2017-10-24T04:31:16.250Z,76.40
2017-10-24T04:33:48.841Z,75.47
2017-10-24T04:36:20.655Z,74.61
2017-10-24T04:38:54.175Z,75.52
2017-10-24T04:41:27.392Z,75.37
2017-10-24T04:44:02.275Z,77.49
2017-10-24T04:46:34.487Z,76.65
2017-10-24T04:49:07.476Z,75.85
2017-10-24T04:51:39.714Z,74.95
2017-10-24T04:54:13.574Z,74.28
2017-10-24T04:56:49.615Z,74.72
2017-10-24T04:59:27.447Z,74.32
2017-10-24T05:01:59.572Z,74.46
2017-10-24T05:04:31.369Z,74.39
2017-10-24T05:07:02.864Z,74.39
2017-10-24T05:09:34.977Z,74.11
2017-10-24T05:12:06.227Z,74.15
2017-10-24T05:14:43.065Z,74.46
2017-10-24T05:17:18.466Z,73.98
2017-10-24T05:20:02.677Z,74.39
2017-10-24T05:22:34.609Z,75.00
2017-10-24T05:25:29.544Z,74.46
2017-10-24T05:28:02.477Z,74.39
2017-10-24T05:30:35.168Z,75.21
2017-10-24T05:33:07.707Z,74.43
2017-10-24T05:35:39.882Z,74.24
2017-10-24T05:38:11.797Z,74.29
2017-10-24T05:40:43.842Z,75.20
2017-10-24T05:43:29.077Z,74.91
2017-10-24T05:46:07.278Z,74.90
2017-10-24T05:48:39.777Z,74.87
2017-10-24T05:51:11.670Z,77.00
2017-10-24T05:53:45.083Z,75.73
2017-10-24T05:56:17.728Z,75.50
2017-10-24T05:58:54.673Z,74.59
2017-10-24T06:01:27.794Z,74.18
2017-10-24T06:04:00.004Z,74.20
2017-10-24T06:06:32.484Z,75.88
2017-10-24T06:09:09.279Z,75.80
2017-10-24T06:11:41.486Z,76.83
2017-10-24T06:14:14.677Z,77.06
2017-10-24T06:16:49.005Z,75.71
2017-10-24T06:19:23.854Z,76.98
2017-10-24T06:21:58.480Z,76.32
2017-10-24T06:24:31.292Z,77.45
2017-10-24T06:29:37.289Z,78.41
2017-10-24T06:32:12.630Z,76.87
2017-10-24T06:34:45.523Z,76.16
2017-10-24T06:37:20.393Z,75.32
2017-10-24T06:39:53.088Z,75.04
2017-10-24T06:42:25.294Z,74.87
2017-10-24T06:44:57.790Z,74.12
2017-10-24T06:47:30.605Z,73.95
2017-10-24T06:50:04.585Z,74.18
2017-10-24T06:52:40.895Z,74.35
2017-10-24T06:55:18.799Z,73.74
2017-10-24T07:01:21.588Z,73.75
2017-10-24T07:03:59.714Z,73.04
2017-10-24T07:06:33.923Z,73.56
2017-10-24T07:09:37.695Z,73.56
2017-10-24T07:15:13.921Z,73.55
2017-10-24T07:18:19.440Z,73.17
2017-10-24T07:21:12.196Z,73.38
2017-10-24T07:23:44.106Z,73.35
2017-10-24T07:26:32.074Z,72.77
2017-10-24T07:29:12.579Z,75.12
2017-10-24T07:31:45.904Z,76.11
2017-10-24T07:34:22.779Z,76.01
2017-10-24T07:36:59.001Z,75.69
2017-10-24T07:39:32.220Z,76.39
2017-10-24T07:42:03.397Z,75.22
2017-10-24T07:44:36.415Z,76.38
2017-10-24T07:47:12.915Z,76.20
2017-10-24T07:49:47.757Z,76.81
2017-10-24T07:52:24.753Z,76.31
2017-10-24T07:55:03.607Z,75.88
2017-10-24T07:57:42.083Z,76.31
2017-10-24T08:00:29.303Z,75.28
2017-10-24T08:03:04.626Z,75.45
2017-10-24T08:06:06.809Z,74.84
2017-10-24T08:08:40.278Z,76.61
2017-10-24T08:11:20.079Z,75.92
2017-10-24T08:13:52.086Z,74.65
2017-10-24T08:16:26.303Z,75.13
2017-10-24T08:19:02.504Z,75.11
2017-10-24T08:21:51.174Z,74.40
2017-10-24T08:24:26.411Z,74.27
2017-10-24T08:27:13.412Z,73.33
2017-10-24T08:29:46.428Z,72.50
2017-10-24T08:32:32.513Z,72.86
2017-10-24T08:35:04.887Z,72.06
2017-10-24T08:37:37.595Z,72.04
2017-10-24T08:40:12.930Z,72.12
2017-10-24T08:46:09.666Z,74.46
2017-10-24T08:48:59.011Z,75.14
2017-10-24T08:54:27.100Z,74.52
2017-10-24T08:56:59.696Z,74.19
2017-10-24T08:59:36.659Z,73.27
2017-10-24T09:02:10.268Z,72.68
2017-10-24T09:04:51.774Z,72.06
2017-10-24T09:08:45.096Z,73.50
2017-10-24T09:13:33.765Z,72.87
2017-10-24T09:16:17.643Z,73.50
2017-10-24T09:18:55.222Z,72.64
2017-10-24T09:21:39.556Z,71.42
2017-10-24T09:24:12.505Z,70.23
2017-10-24T09:26:44.441Z,70.83
2017-10-24T09:29:18.287Z,71.78
2017-10-24T09:31:51.724Z,70.13
2017-10-24T09:34:26.559Z,70.36
2017-10-24T09:37:02.844Z,70.69
2017-10-24T09:39:35.515Z,70.67
2017-10-24T09:42:36.321Z,70.22
2017-10-24T09:45:20.233Z,69.71
2017-10-24T09:47:59.053Z,69.40
2017-10-24T09:50:41.936Z,68.72
2017-10-24T09:53:15.628Z,69.03
2017-10-24T09:55:57.121Z,68.68
2017-10-24T09:58:57.560Z,68.57
2017-10-24T10:01:35.581Z,68.45
2017-10-24T10:04:08.503Z,68.31
2017-10-24T10:06:42.514Z,69.11
2017-10-24T10:09:19.544Z,69.16
2017-10-24T10:12:00.030Z,68.12
2017-10-24T10:14:33.410Z,66.52
2017-10-24T10:17:07.135Z,66.13
2017-10-24T10:19:40.938Z,66.30
2017-10-24T10:22:27.460Z,66.67
2017-10-24T10:25:06.239Z,68.13
2017-10-24T10:28:01.842Z,67.78
2017-10-24T10:30:38.402Z,67.79
2017-10-24T10:35:59.352Z,66.35
2017-10-24T10:38:32.514Z,66.29
2017-10-24T10:41:06.414Z,68.12
2017-10-24T10:43:39.637Z,67.08
2017-10-24T10:46:14.356Z,67.73
2017-10-24T10:48:47.632Z,67.80
2017-10-24T10:51:29.564Z,67.46
2017-10-24T10:54:02.360Z,67.83
2017-10-24T10:56:44.262Z,67.33
2017-10-24T10:59:16.109Z,67.30
2017-10-24T11:01:47.263Z,67.23
2017-10-24T11:04:31.814Z,67.58
2017-10-24T11:07:10.046Z,67.87
2017-10-24T11:09:59.704Z,67.63
2017-10-24T11:12:34.006Z,68.26
2017-10-24T11:17:54.971Z,66.45
2017-10-24T11:20:28.719Z,66.58
2017-10-24T11:23:07.698Z,66.02
2017-10-24T11:25:41.128Z,66.70
2017-10-24T11:28:13.382Z,66.36
2017-10-24T11:30:47.079Z,65.92
2017-10-24T11:33:31.920Z,65.54
2017-10-24T11:36:10.595Z,64.86
2017-10-24T11:38:43.572Z,65.57
2017-10-24T11:41:16.977Z,65.50
2017-10-24T11:43:49.895Z,64.53
2017-10-24T11:46:34.236Z,64.58
2017-10-24T11:49:14.641Z,64.12
2017-10-24T11:52:02.274Z,64.26
2017-10-24T11:55:59.979Z,63.73
2017-10-24T11:58:37.259Z,64.75
2017-10-24T12:01:13.020Z,64.92
2017-10-24T12:03:46.082Z,64.66
2017-10-24T12:06:19.597Z,65.18
2017-10-24T12:08:54.036Z,66.22
2017-10-24T12:11:29.081Z,65.68
2017-10-24T12:14:02.819Z,65.40
2017-10-24T12:16:40.332Z,65.18
2017-10-24T12:19:24.498Z,64.72
2017-10-24T12:22:07.137Z,65.12
2017-10-24T12:24:41.112Z,65.07
2017-10-24T12:27:13.630Z,64.59
2017-10-24T12:29:49.021Z,65.13
2017-10-24T12:32:23.994Z,64.79
2017-10-24T12:37:50.839Z,65.29
2017-10-24T12:40:36.856Z,64.81
2017-10-24T12:43:09.952Z,64.32
2017-10-24T12:45:43.582Z,64.49
2017-10-24T12:48:16.923Z,64.53
2017-10-24T12:51:06.910Z,64.35
2017-10-24T12:53:43.395Z,64.56
2017-10-24T12:56:36.985Z,65.37
2017-10-24T12:59:12.391Z,66.10
2017-10-24T13:04:36.772Z,67.17
2017-10-24T13:07:09.610Z,67.41
2017-10-24T13:09:41.885Z,66.90
2017-10-24T13:12:17.097Z,67.81
2017-10-24T13:14:49.693Z,68.20
2017-10-24T13:17:48.935Z,70.11
2017-10-24T13:20:23.515Z,70.61
2017-10-24T13:22:59.695Z,70.24
2017-10-24T13:25:34.833Z,70.25
2017-10-24T13:28:16.898Z,70.89
2017-10-24T13:31:01.596Z,70.20
2017-10-24T13:33:34.108Z,70.10
2017-10-24T13:36:06.928Z,70.70
2017-10-24T13:38:40.422Z,70.67
2017-10-24T13:44:01.401Z,70.06
2017-10-24T13:46:37.617Z,69.41
2017-10-24T13:49:18.496Z,68.70
2017-10-24T13:51:53.980Z,68.75
2017-10-24T13:54:32.236Z,68.55
2017-10-24T13:57:13.202Z,68.22
2017-10-24T13:59:55.313Z,68.24
2017-10-24T14:02:32.014Z,68.14
2017-10-24T14:05:09.241Z,68.16
2017-10-24T14:08:56.988Z,67.97
2017-10-24T14:14:14.044Z,68.09
2017-10-24T14:16:46.888Z,68.17
2017-10-24T14:19:19.406Z,68.20
2017-10-24T14:21:54.808Z,68.49
2017-10-24T14:24:36.136Z,68.79
2017-10-24T14:27:12.030Z,68.89
2017-10-24T14:29:46.247Z,69.02
2017-10-24T14:32:18.910Z,69.03
2017-10-24T14:35:06.175Z,69.18
2017-10-24T14:37:44.178Z,69.51
2017-10-24T14:40:17.881Z,69.35
2017-10-24T14:42:56.937Z,70.31
2017-10-24T14:45:29.684Z,70.33
2017-10-24T14:48:18.825Z,69.95
2017-10-24T14:51:02.534Z,69.32
2017-10-24T14:53:36.281Z,69.47
2017-10-24T14:56:08.349Z,69.24
2017-10-24T15:01:29.269Z,68.96
2017-10-24T15:04:22.275Z,68.75
2017-10-24T15:06:56.581Z,69.13
2017-10-24T15:09:33.111Z,68.74
2017-10-24T15:12:08.798Z,68.23
2017-10-24T15:14:44.313Z,68.14
2017-10-24T15:17:20.820Z,68.18
2017-10-24T15:23:02.035Z,68.33
2017-10-24T15:25:35.814Z,68.27
2017-10-24T15:28:08.923Z,69.13
2017-10-24T15:30:45.694Z,69.98
2017-10-24T15:33:20.302Z,70.84
2017-10-24T15:35:56.430Z,71.14
2017-10-24T15:38:32.311Z,71.20
2017-10-24T15:41:11.813Z,70.45
2017-10-24T15:43:48.993Z,70.58
2017-10-24T15:49:19.518Z,70.65
2017-10-24T15:51:54.107Z,70.34
2017-10-24T15:54:29.855Z,70.87
2017-10-24T15:57:08.852Z,70.76
2017-10-24T15:59:42.188Z,71.14
2017-10-24T16:02:18.202Z,71.03
2017-10-24T16:04:51.061Z,70.58
2017-10-24T16:07:28.600Z,70.66
2017-10-24T16:10:01.596Z,70.19
2017-10-24T16:12:50.890Z,70.16
2017-10-24T16:15:27.714Z,69.96
2017-10-24T16:18:02.191Z,69.51
2017-10-24T16:20:34.721Z,70.29
2017-10-24T16:23:07.324Z,70.21
2017-10-24T16:25:41.758Z,70.30
2017-10-24T16:28:23.325Z,70.05
2017-10-24T16:31:02.724Z,69.97
2017-10-24T16:33:54.246Z,69.68
2017-10-24T16:36:30.583Z,69.27
2017-10-24T16:39:04.546Z,69.35
2017-10-24T16:41:37.435Z,69.38
2017-10-24T16:44:10.652Z,69.29
2017-10-24T16:46:43.237Z,69.33
2017-10-24T16:52:03.548Z,69.04
2017-10-24T16:54:37.153Z,68.76
2017-10-24T16:57:27.840Z,68.98
2017-10-24T17:00:07.437Z,69.48
2017-10-24T17:02:43.039Z,69.88
2017-10-24T17:05:27.146Z,69.42
2017-10-24T17:13:35.773Z,69.55
2017-10-24T17:16:20.101Z,69.25
2017-10-24T17:19:05.925Z,70.24
2017-10-24T17:21:44.350Z,70.15
2017-10-24T17:24:21.444Z,69.91
2017-10-24T17:27:05.991Z,69.98
2017-10-24T17:29:41.767Z,69.55
2017-10-24T17:32:19.826Z,69.52
2017-10-24T17:34:58.003Z,69.68
2017-10-24T17:37:35.331Z,69.36
2017-10-24T17:40:11.536Z,69.49
2017-10-24T17:42:47.886Z,69.50
2017-10-24T17:45:38.430Z,69.20
2017-10-24T17:48:15.934Z,69.38
2017-10-24T17:50:55.138Z,69.16
2017-10-24T17:53:30.467Z,69.75
2017-10-24T17:56:06.427Z,69.85
2017-10-24T17:58:44.138Z,69.70
2017-10-24T18:04:07.212Z,69.28
2017-10-24T18:06:46.389Z,69.48
2017-10-24T18:09:26.157Z,69.63
2017-10-24T18:12:11.111Z,69.64
2017-10-24T18:14:49.070Z,69.67
2017-10-24T18:17:30.893Z,69.92
2017-10-24T18:20:08.803Z,69.72
2017-10-24T18:22:50.356Z,69.45
2017-10-24T18:25:28.458Z,68.93
2017-10-24T18:28:09.057Z,69.17
2017-10-24T18:30:48.396Z,69.14
2017-10-24T18:33:32.057Z,69.64
2017-10-24T18:36:12.566Z,69.01
2017-10-24T18:38:51.267Z,68.97
2017-10-24T18:41:31.389Z,69.03
2017-10-24T18:44:18.305Z,69.52
2017-10-24T18:46:58.222Z,69.09
2017-10-24T18:49:45.297Z,69.22
2017-10-24T18:52:29.878Z,68.62
2017-10-24T18:55:14.695Z,68.67
2017-10-24T18:58:05.398Z,69.29
2017-10-24T19:00:49.315Z,69.73
2017-10-24T19:06:31.502Z,69.28
2017-10-24T19:09:10.125Z,69.14
2017-10-24T19:11:48.900Z,69.07
2017-10-24T19:14:31.020Z,69.04
2017-10-24T19:17:08.898Z,69.49
2017-10-24T19:19:53.772Z,69.66
2017-10-24T19:22:40.113Z,69.44
2017-10-24T19:25:17.710Z,69.37
2017-10-24T19:27:57.928Z,69.91
2017-10-24T19:30:39.710Z,69.75
2017-10-24T19:33:17.839Z,69.62
2017-10-24T19:38:49.629Z,69.94
2017-10-24T19:41:32.238Z,69.82
2017-10-24T19:44:10.646Z,70.61
2017-10-24T19:46:49.213Z,70.48
2017-10-24T19:49:33.762Z,70.48
2017-10-24T19:52:14.587Z,70.32
2017-10-24T19:55:02.567Z,69.96
2017-10-24T19:57:39.569Z,70.50
2017-10-24T20:00:25.757Z,70.50
2017-10-24T20:03:05.506Z,70.63
2017-10-24T20:05:44.543Z,70.02
2017-10-24T20:08:25.546Z,69.97
2017-10-24T20:11:05.448Z,69.70
2017-10-24T20:13:47.547Z,70.17
2017-10-24T20:16:27.431Z,70.18
2017-10-24T20:19:03.461Z,70.14
2017-10-24T20:21:42.292Z,70.52
2017-10-24T20:24:18.627Z,70.52
2017-10-24T20:27:01.304Z,70.48
2017-10-24T20:29:45.087Z,70.13
2017-10-24T20:32:20.567Z,69.75
2017-10-24T20:34:59.577Z,69.63
2017-10-24T20:37:37.855Z,69.30
2017-10-24T20:40:14.544Z,69.20
2017-10-24T20:43:15.703Z,69.19
2017-10-24T20:45:58.931Z,68.77
2017-10-24T20:48:35.724Z,68.67
2017-10-24T20:51:10.201Z,69.10
2017-10-24T20:53:50.298Z,69.12
2017-10-24T20:56:33.836Z,69.28
2017-10-24T20:59:06.333Z,69.04
2017-10-24T21:01:40.232Z,68.95
2017-10-24T21:04:13.439Z,69.12
2017-10-24T21:06:48.044Z,69.67
2017-10-24T21:09:35.291Z,69.77
2017-10-24T21:12:11.951Z,69.84
2017-10-24T21:14:49.244Z,70.02
2017-10-24T21:17:27.595Z,69.65
2017-10-24T21:20:12.567Z,69.75
2017-10-24T21:22:46.105Z,70.34
2017-10-24T21:25:27.649Z,70.44
2017-10-24T21:28:01.045Z,70.01
2017-10-24T21:30:42.144Z,69.80
2017-10-24T21:33:17.328Z,69.88
2017-10-24T21:35:50.522Z,70.07
2017-10-24T21:38:27.849Z,70.24
2017-10-24T21:41:09.038Z,70.73
2017-10-24T21:43:44.519Z,70.68
2017-10-24T21:46:19.828Z,70.25
2017-10-24T21:48:51.743Z,70.29
2017-10-24T21:51:25.548Z,71.28
2017-10-24T21:53:59.242Z,71.01
2017-10-24T21:56:38.047Z,70.75
2017-10-24T21:59:12.672Z,70.69
2017-10-24T22:01:45.939Z,71.12
2017-10-24T22:04:18.140Z,70.61
2017-10-24T22:06:51.056Z,70.51
2017-10-24T22:09:28.149Z,71.05
2017-10-24T22:12:14.876Z,70.70
2017-10-24T22:14:52.227Z,71.14
2017-10-24T22:17:33.037Z,70.89
2017-10-24T22:20:07.284Z,71.62
2017-10-24T22:22:40.480Z,72.26
2017-10-24T22:25:12.435Z,71.91
2017-10-24T22:27:45.584Z,71.16
2017-10-24T22:30:21.424Z,71.74
2017-10-24T22:32:54.423Z,71.31
2017-10-24T22:36:02.623Z,70.50
2017-10-24T22:38:38.742Z,69.59
2017-10-24T22:46:42.556Z,70.71
2017-10-24T22:49:15.432Z,71.33
2017-10-24T22:51:53.596Z,71.47
2017-10-24T22:54:27.698Z,71.51
2017-10-24T22:57:00.446Z,71.65
2017-10-24T22:59:35.739Z,71.87
2017-10-24T23:02:08.127Z,72.22
2017-10-24T23:04:49.967Z,71.85
2017-10-24T23:07:28.558Z,72.38
2017-10-24T23:10:02.280Z,72.36
2017-10-24T23:12:35.296Z,71.73
2017-10-24T23:15:21.492Z,71.95
2017-10-24T23:18:16.628Z,71.83
2017-10-24T23:21:12.253Z,72.06
2017-10-24T23:23:45.866Z,72.69
2017-10-24T23:26:20.745Z,71.92
2017-10-24T23:28:55.150Z,71.57
2017-10-24T23:31:28.842Z,71.36
2017-10-24T23:34:01.360Z,71.59
2017-10-24T23:36:33.445Z,72.36
2017-10-24T23:39:06.114Z,72.50
2017-10-24T23:41:43.230Z,71.74
2017-10-24T23:44:20.295Z,71.20
2017-10-24T23:47:17.544Z,71.91
2017-10-24T23:49:51.483Z,72.10
2017-10-24T23:52:27.435Z,71.59
2017-10-24T23:54:59.043Z,71.71
2017-10-24T23:57:35.764Z,72.01
